Oconto, WI

4:24 AM CST on December 09, 2019 (GMT -0600)
Oconto Municipal

Weather History for KOCQ - October, 2019

Change the Weather History Date:

Sunday, October 27, 2019

  Actual Average Record
Temperature  
Mean Temperature 46 °F -  
Max Temperature 57 °F 54 °F 58 °F (2014)
Min Temperature 35 °F 34 °F 30 °F (2013)
Degree Days  
Heating Degree Days 19    
Moisture  
Dew Point 35 °F    
Average Humidity 68    
Maximum Humidity 95    
Minimum Humidity 37    
Precipitation  
Precipitation 0.06 in - - ()
Sea Level Pressure  
Sea Level Pressure 29.75 in    
Wind  
Wind Speed 6 mph (West)    
Max Wind Speed 15 mph    
Max Gust Speed 20 mph    
Visibility 10 miles    
Events      
Averages and records for this station are not official NWS values.
T = Trace of Precipitation, MM = Missing Value Source: NWS Daily Summary

Daily Weather History Graph

Daily Weather History Graph

Search for Another Location

Airport or City:

Astronomy

Oct. 27, 2019 Rise Set
Actual Time 7:22 AM CDT 5:47 PM CDT
Civil Twilight 6:52 AM CDT 6:17 PM CDT
Nautical Twilight 6:18 AM CDT 6:52 PM CDT
Astronomical Twilight 5:44 AM CDT 7:25 PM CDT
Moon 6:26 AM CDT (10/27) 5:59 PM CDT (10/27)
Length of Visible Light 11h 25m
Length of Day
10h 24m
Waning Crescent, 0% of the Moon is Illuminated
Oct 27
Waning Crescent
Oct 27
New
Nov 4
First Quarter
Nov 12
Full
Nov 19
Last Quarter

Hourly Weather History & Observations

Time (CDT) Temp. Windchill Dew Point Humidity Pressure Visibility Wind Dir Wind Speed Gust Speed Precip Events Conditions
12:15 AM 41.4 °F 39.4 °F 38.5 °F 89% 29.66 in 10.0 mi North 3.5 mph - N/A   Overcast
12:35 AM 41.4 °F 39.4 °F 39.2 °F 92% 29.65 in 10.0 mi NNE 3.5 mph - 0.01 in   Overcast
12:55 AM 41.2 °F 38.2 °F 39.2 °F 93% 29.64 in 10.0 mi North 4.6 mph - 0.02 in   Overcast
1:15 AM 41.0 °F 38.0 °F 39.6 °F 95% 29.63 in 7.0 mi North 4.6 mph - 0.01 in   Overcast
1:35 AM 41.0 °F 38.0 °F 39.6 °F 95% 29.62 in 10.0 mi North 4.6 mph - 0.02 in   Overcast
1:55 AM 41.2 °F 37.3 °F 39.7 °F 95% 29.62 in 10.0 mi NNW 5.8 mph - 0.02 in   Overcast
2:15 AM 40.6 °F 36.7 °F 38.7 °F 93% 29.62 in 10.0 mi NNW 5.8 mph - N/A   Overcast
2:35 AM 40.5 °F 36.5 °F 38.7 °F 93% 29.61 in 10.0 mi NNW 5.8 mph - 0.01 in   Overcast
2:55 AM 41.0 °F 37.1 °F 39.2 °F 93% 29.61 in 10.0 mi North 5.8 mph - 0.01 in   Overcast
3:15 AM 41.9 °F 37.5 °F 40.3 °F 94% 29.61 in 10.0 mi NW 6.9 mph - 0.01 in   Overcast
3:35 AM 41.0 °F 37.1 °F 39.2 °F 93% 29.61 in 10.0 mi NNW 5.8 mph - 0.01 in   Overcast
3:55 AM 41.2 °F 36.0 °F 38.8 °F 91% 29.62 in 10.0 mi NW 8.1 mph - 0.01 in   Overcast
4:15 AM 41.2 °F 36.6 °F 38.3 °F 89% 29.61 in 10.0 mi NNW 6.9 mph - N/A   Overcast
4:35 AM 40.6 °F 36.7 °F 37.8 °F 89% 29.62 in 10.0 mi NW 5.8 mph - N/A   Scattered Clouds
4:55 AM 40.5 °F 36.5 °F 37.4 °F 89% 29.63 in 10.0 mi NNW 5.8 mph - N/A   Clear
5:15 AM 40.5 °F 37.3 °F 36.9 °F 87% 29.64 in 10.0 mi NW 4.6 mph - N/A   Clear
5:35 AM 39.7 °F 37.6 °F 36.7 °F 89% 29.64 in 10.0 mi NW 3.5 mph - N/A   Clear
5:55 AM 39.2 °F 37.0 °F 36.3 °F 89% 29.65 in 10.0 mi WNW 3.5 mph - N/A   Clear
6:15 AM 38.7 °F 36.3 °F 35.6 °F 89% 29.66 in 10.0 mi NW 3.5 mph - N/A   Clear
6:35 AM 35.6 °F 30.7 °F 33.4 °F 92% 29.67 in 10.0 mi WNW 5.8 mph - N/A   Clear
6:55 AM 36.7 °F 32.9 °F 34.2 °F 91% 29.69 in 10.0 mi WNW 4.6 mph - N/A   Clear
7:15 AM 36.1 °F 32.3 °F 33.8 °F 91% 29.70 in 10.0 mi WNW 4.6 mph - N/A   Clear
7:55 AM 36.9 °F 32.2 °F 33.8 °F 89% 29.74 in 10.0 mi WNW 5.8 mph - N/A   Clear
8:15 AM 37.4 °F 33.8 °F 34.0 °F 87% 29.74 in 10.0 mi West 4.6 mph - N/A   Clear
8:35 AM 38.7 °F 36.3 °F 34.5 °F 85% 29.74 in 10.0 mi WNW 3.5 mph - N/A   Clear
8:55 AM 39.9 °F 34.5 °F 34.9 °F 82% 29.75 in 10.0 mi West 8.1 mph - N/A   Clear
9:15 AM 40.6 °F 36.0 °F 35.1 °F 80% 29.76 in 10.0 mi West 6.9 mph - N/A   Clear
9:35 AM 41.9 °F 37.5 °F 34.3 °F 75% 29.78 in 10.0 mi West 6.9 mph - N/A   Clear
9:55 AM 43.5 °F 38.3 °F 34.7 °F 71% 29.79 in 10.0 mi WNW 9.2 mph - N/A   Clear
10:15 AM 44.2 °F 39.2 °F 34.7 °F 69% 29.78 in 10.0 mi West 9.2 mph - N/A   Clear
10:35 AM 45.9 °F 42.3 °F 34.9 °F 66% 29.78 in 10.0 mi WNW 6.9 mph - N/A   Clear
10:55 AM 47.3 °F - 34.9 °F 62% 29.78 in 10.0 mi NW 5.8 mph - N/A   Clear
11:15 AM 48.4 °F - 34.7 °F 59% 29.79 in 10.0 mi West 8.1 mph - N/A   Clear
11:35 AM 49.5 °F - 34.7 °F 57% 29.81 in 10.0 mi WSW 5.8 mph - N/A   Clear
11:55 AM 50.7 °F - 34.3 °F 53% 29.81 in 10.0 mi SW 5.8 mph - N/A   Clear
12:15 PM 51.4 °F - 34.9 °F 53% 29.81 in 10.0 mi SW 8.1 mph - N/A   Clear
12:35 PM 52.3 °F - 32.9 °F 48% 29.81 in 10.0 mi WSW 6.9 mph - N/A   Clear
12:55 PM 54.1 °F - 32.2 °F 43% 29.80 in 10.0 mi WSW 9.2 mph - N/A   Clear
1:15 PM 54.7 °F - 31.8 °F 42% 29.80 in 10.0 mi West 8.1 mph - N/A   Clear
1:55 PM 55.8 °F - 31.3 °F 39% 29.79 in 10.0 mi SW 9.2 mph - N/A   Clear
2:15 PM 56.3 °F - 30.9 °F 38% 29.77 in 10.0 mi WNW 4.6 mph - N/A   Clear
2:35 PM 57.0 °F - 31.6 °F 38% 29.80 in 10.0 mi West 11.5 mph 18.4 mph N/A   Clear
2:55 PM 57.2 °F - 31.8 °F 38% 29.80 in 10.0 mi WSW 10.4 mph - N/A   Clear
3:15 PM 57.2 °F - 30.9 °F 37% 29.82 in 10.0 mi West 12.7 mph 19.6 mph N/A   Clear
3:35 PM 57.7 °F - 31.8 °F 37% 29.83 in 10.0 mi West 15.0 mph 18.4 mph N/A   Clear
3:55 PM 57.4 °F - 31.3 °F 37% 29.82 in 10.0 mi WSW 10.4 mph 18.4 mph N/A   Clear
4:15 PM 57.4 °F - 31.3 °F 37% 29.82 in 10.0 mi WSW 11.5 mph - N/A   Clear
4:35 PM 57.2 °F - 32.0 °F 38% 29.83 in 10.0 mi WSW 10.4 mph - N/A   Clear
4:55 PM 56.3 °F - 32.0 °F 40% 29.84 in 10.0 mi WSW 8.1 mph - N/A   Clear
5:15 PM 56.5 °F - 31.6 °F 39% 29.84 in 10.0 mi SW 4.6 mph - N/A   Clear
5:35 PM 54.9 °F - 32.0 °F 42% 29.84 in 10.0 mi SW 4.6 mph - N/A   Clear
5:55 PM 53.8 °F - 32.0 °F 44% 29.84 in 10.0 mi SSW 3.5 mph - N/A   Clear
6:15 PM 51.6 °F - 32.4 °F 48% 29.85 in 10.0 mi Calm Calm - N/A   Clear
6:35 PM 51.1 °F - 32.4 °F 49% 29.86 in 10.0 mi SSW 4.6 mph - N/A   Clear
6:55 PM 50.0 °F - 32.7 °F 52% 29.87 in 10.0 mi SW 5.8 mph - N/A   Clear
7:15 PM 48.7 °F - 32.9 °F 54% 29.88 in 10.0 mi SW 4.6 mph - N/A   Clear
7:35 PM 48.2 °F - 33.1 °F 56% 29.89 in 10.0 mi SW 4.6 mph - N/A   Clear
7:55 PM 44.8 °F 42.4 °F 33.4 °F 64% 29.89 in 10.0 mi WSW 4.6 mph - N/A   Clear
8:15 PM 44.1 °F 40.8 °F 34.0 °F 68% 29.89 in 10.0 mi WSW 5.8 mph - N/A   Clear